Terminal Aerodrome Forecast
Issued by NWS

Current Version | Previous Version | Text Only | Print | Product List | Glossary On
Versions: 1 2 3 4 5 6 7 8 9 10 11 12 13 14 15 16 17
000
FTUS42 TJSJ 251900 CCA
TAFJSJ
TAF COR
TJSJ 251956Z 2518/2618 08015G20KT P6SM VCSH SCT022 BKN050 BKN090
     FM252230 09011KT P6SM VCSH SCT025 SCT040 SCT090
     FM261430 08014G24KT P6SM SCT025 SCT050=

USA.gov is the U.S. government's official web portal to all federal, state and local government web resources and services.